createdAt,value
2023-01-31T00:01:41.335Z,98973.00
2023-01-31T00:04:12.546Z,98992.28
2023-01-31T00:06:43.772Z,98981.72
2023-01-31T00:09:13.000Z,98994.25
2023-01-31T00:11:40.427Z,98997.03
2023-01-31T00:14:10.608Z,98996.69
2023-01-31T00:16:37.715Z,99002.00
2023-01-31T00:19:04.890Z,99002.78
2023-01-31T00:21:32.753Z,99009.09
2023-01-31T00:24:00.959Z,99010.16
2023-01-31T00:26:34.051Z,99008.91
2023-01-31T00:29:04.608Z,99015.31
2023-01-31T00:31:34.888Z,99016.28
2023-01-31T00:34:02.288Z,99020.91
2023-01-31T00:36:35.123Z,99021.25
2023-01-31T00:39:04.793Z,99020.56
2023-01-31T00:41:33.928Z,99031.09
2023-01-31T00:44:01.429Z,99029.22
2023-01-31T00:46:28.706Z,99028.56
2023-01-31T00:48:56.806Z,99037.09
2023-01-31T00:51:26.805Z,99043.06
2023-01-31T00:53:54.367Z,99042.59
2023-01-31T00:56:24.712Z,99043.09
2023-01-31T00:58:53.122Z,99054.56
2023-01-31T01:01:24.725Z,99051.28
2023-01-31T01:03:52.609Z,99059.56
2023-01-31T01:06:20.788Z,99048.31
2023-01-31T01:08:48.213Z,99058.19
2023-01-31T01:11:22.826Z,99057.13
2023-01-31T01:13:50.859Z,99061.75
2023-01-31T01:16:27.074Z,99060.09
2023-01-31T01:18:57.334Z,99061.09
2023-01-31T01:21:27.806Z,99065.31
2023-01-31T01:23:59.420Z,99070.63
2023-01-31T01:26:30.953Z,99061.56
2023-01-31T01:29:00.603Z,99066.97
2023-01-31T01:31:30.619Z,99059.91
2023-01-31T01:34:06.015Z,99066.31
2023-01-31T01:36:37.187Z,99073.84
2023-01-31T01:39:07.262Z,99078.72
2023-01-31T01:41:34.249Z,99079.22
2023-01-31T01:44:04.788Z,99090.06
2023-01-31T01:46:40.475Z,99086.69
2023-01-31T01:49:28.858Z,99095.22
2023-01-31T01:51:58.053Z,99106.75
2023-01-31T01:54:35.048Z,99098.38
2023-01-31T01:57:06.437Z,99096.31
2023-01-31T01:59:40.804Z,99109.44
2023-01-31T02:02:07.960Z,99102.72
2023-01-31T02:04:39.330Z,99116.44
2023-01-31T02:07:09.127Z,99108.59
2023-01-31T02:10:27.523Z,99122.63
2023-01-31T02:12:54.929Z,99127.91
2023-01-31T02:15:22.960Z,99130.56
2023-01-31T02:17:50.240Z,99142.69
2023-01-31T02:20:58.393Z,99149.94
2023-01-31T02:23:49.637Z,99158.47
2023-01-31T02:26:35.601Z,99155.94
2023-01-31T02:29:51.681Z,99150.81
2023-01-31T02:32:55.917Z,99162.38
2023-01-31T02:36:11.961Z,99159.56
2023-01-31T02:38:41.587Z,99174.28
2023-01-31T02:41:21.600Z,99167.47
2023-01-31T02:44:22.496Z,99171.53
2023-01-31T02:46:59.452Z,99183.72
2023-01-31T02:50:00.022Z,99183.97
2023-01-31T02:52:32.140Z,99194.22
2023-01-31T02:56:08.775Z,99191.84
2023-01-31T02:58:39.631Z,99202.25
2023-01-31T03:01:10.864Z,99214.72
2023-01-31T03:03:39.091Z,99222.72
2023-01-31T03:06:29.776Z,99219.50
2023-01-31T03:09:07.788Z,99224.31
2023-01-31T03:12:06.385Z,99238.16
2023-01-31T03:14:55.272Z,99234.75
2023-01-31T03:17:44.825Z,99237.44
2023-01-31T03:20:25.129Z,99239.06
2023-01-31T03:23:01.604Z,99246.41
2023-01-31T03:25:35.142Z,99247.00
2023-01-31T03:28:09.258Z,99255.72
2023-01-31T03:30:43.998Z,99256.63
2023-01-31T03:33:44.396Z,99255.63
2023-01-31T03:36:43.175Z,99271.50
2023-01-31T03:39:42.416Z,99281.47
2023-01-31T03:42:31.532Z,99272.56
2023-01-31T03:45:15.845Z,99276.81
2023-01-31T03:47:48.714Z,99284.66
2023-01-31T03:50:39.679Z,99277.00
2023-01-31T03:53:16.039Z,99273.34
2023-01-31T03:55:55.775Z,99283.25
2023-01-31T03:58:31.647Z,99271.19
2023-01-31T04:01:02.455Z,99273.53
2023-01-31T04:03:45.391Z,99283.06
2023-01-31T04:06:13.436Z,99289.00
2023-01-31T04:08:40.682Z,99293.13
2023-01-31T04:11:13.287Z,99290.25
2023-01-31T04:13:41.820Z,99275.03
2023-01-31T04:16:09.028Z,99288.06
2023-01-31T04:18:38.079Z,99293.84
2023-01-31T04:21:05.953Z,99297.81
2023-01-31T04:23:33.375Z,99302.78
2023-01-31T04:26:00.466Z,99312.00
2023-01-31T04:28:27.779Z,99325.03
2023-01-31T04:30:56.642Z,99319.03
2023-01-31T04:33:24.387Z,99332.03
2023-01-31T04:35:52.227Z,99327.41
2023-01-31T04:38:19.214Z,99328.47
2023-01-31T04:40:46.387Z,99327.41
2023-01-31T04:43:13.652Z,99332.72
2023-01-31T04:45:41.528Z,99345.59
2023-01-31T04:48:08.926Z,99343.63
2023-01-31T04:50:36.580Z,99338.53
2023-01-31T04:53:04.858Z,99347.78
2023-01-31T04:55:32.018Z,99348.53
2023-01-31T04:57:59.027Z,99352.84
2023-01-31T05:00:27.559Z,99361.47
2023-01-31T05:02:54.683Z,99355.66
2023-01-31T05:05:22.029Z,99367.84
2023-01-31T05:07:49.087Z,99361.47
2023-01-31T05:10:16.286Z,99375.44
2023-01-31T05:12:43.321Z,99380.66
2023-01-31T05:15:11.790Z,99383.81
2023-01-31T05:17:39.297Z,99390.41
2023-01-31T05:20:07.243Z,99393.03
2023-01-31T05:22:34.379Z,99391.84
2023-01-31T05:25:01.483Z,99405.59
2023-01-31T05:27:28.548Z,99406.53
2023-01-31T05:29:55.800Z,99405.03
2023-01-31T05:32:23.046Z,99411.19
2023-01-31T05:34:50.023Z,99420.28
2023-01-31T05:37:17.086Z,99427.81
2023-01-31T05:39:44.089Z,99429.19
2023-01-31T05:42:11.083Z,99432.28
2023-01-31T05:44:38.056Z,99437.66
2023-01-31T05:47:05.232Z,99436.88
2023-01-31T05:49:33.602Z,99430.34
2023-01-31T05:52:01.972Z,99435.59
2023-01-31T05:54:29.408Z,99448.09
2023-01-31T05:56:56.435Z,99459.38
2023-01-31T05:59:23.580Z,99466.47
2023-01-31T06:01:50.664Z,99471.44
2023-01-31T06:04:17.739Z,99473.22
2023-01-31T06:06:45.516Z,99480.19
2023-01-31T06:09:12.660Z,99482.69
2023-01-31T06:11:39.761Z,99478.66
2023-01-31T06:14:06.847Z,99483.63
2023-01-31T06:16:33.984Z,99488.28
2023-01-31T06:19:01.980Z,99494.38
2023-01-31T06:21:29.190Z,99504.13
2023-01-31T06:23:56.299Z,99509.13
2023-01-31T06:26:24.188Z,99504.13
2023-01-31T06:28:51.313Z,99511.88
2023-01-31T06:31:19.134Z,99507.81
2023-01-31T06:33:47.940Z,99526.16
2023-01-31T06:36:18.866Z,99530.38
2023-01-31T06:38:53.897Z,99521.84
2023-01-31T06:41:21.255Z,99530.72
2023-01-31T06:43:48.758Z,99531.69
2023-01-31T06:46:15.772Z,99534.63
2023-01-31T06:48:43.937Z,99540.69
2023-01-31T06:51:11.121Z,99553.13
2023-01-31T06:53:38.156Z,99545.69
2023-01-31T06:56:05.803Z,99548.66
2023-01-31T06:58:33.866Z,99545.97
2023-01-31T07:01:13.531Z,99549.50
2023-01-31T07:03:41.374Z,99549.22
2023-01-31T07:06:10.732Z,99554.56
2023-01-31T07:08:37.825Z,99562.31
2023-01-31T07:11:05.949Z,99568.88
2023-01-31T07:13:33.610Z,99580.09
2023-01-31T07:16:00.884Z,99581.03
2023-01-31T07:18:28.277Z,99584.78
2023-01-31T07:20:55.454Z,99595.19
2023-01-31T07:23:23.165Z,99593.44
2023-01-31T07:25:50.694Z,99604.25
2023-01-31T07:28:18.037Z,99614.16
2023-01-31T07:30:46.393Z,99613.69
2023-01-31T07:33:13.646Z,99621.41
2023-01-31T07:35:43.493Z,99614.59
2023-01-31T07:38:11.539Z,99613.84
2023-01-31T07:40:40.169Z,99635.03
2023-01-31T07:43:07.358Z,99613.97
2023-01-31T07:45:34.840Z,99640.53
2023-01-31T07:48:02.210Z,99634.06
2023-01-31T07:50:29.834Z,99638.53
2023-01-31T07:52:59.261Z,99637.75
2023-01-31T07:55:27.164Z,99648.19
2023-01-31T07:57:54.261Z,99663.53
2023-01-31T08:00:40.495Z,99670.53
2023-01-31T08:03:33.854Z,99670.75
2023-01-31T08:06:12.539Z,99666.22
2023-01-31T08:08:42.503Z,99677.78
2023-01-31T08:11:09.747Z,99666.06
2023-01-31T08:13:38.760Z,99679.41
2023-01-31T08:16:09.249Z,99685.69
2023-01-31T08:18:38.153Z,99682.63
2023-01-31T08:21:06.833Z,99690.25
2023-01-31T08:23:34.832Z,99699.28
2023-01-31T08:26:13.310Z,99697.13
2023-01-31T08:28:41.077Z,99696.69
2023-01-31T08:31:12.520Z,99704.16
2023-01-31T08:33:39.603Z,99707.44
2023-01-31T08:36:18.165Z,99705.41
2023-01-31T08:38:45.720Z,99702.19
2023-01-31T08:41:13.763Z,99708.97
2023-01-31T08:43:54.800Z,99706.50
2023-01-31T08:46:25.997Z,99715.16
2023-01-31T08:48:53.213Z,99706.72
2023-01-31T08:51:20.439Z,99720.97
2023-01-31T08:53:47.887Z,99712.09
2023-01-31T08:56:15.960Z,99725.44
2023-01-31T08:58:44.743Z,99723.25
2023-01-31T09:01:17.280Z,99729.41
2023-01-31T09:03:45.672Z,99720.06
2023-01-31T09:06:24.709Z,99723.19
2023-01-31T09:08:51.958Z,99728.19
2023-01-31T09:11:19.575Z,99729.41
2023-01-31T09:13:51.494Z,99732.34
2023-01-31T09:16:19.274Z,99727.94
2023-01-31T09:18:46.319Z,99735.03
2023-01-31T09:21:15.504Z,99741.28
2023-01-31T09:23:43.403Z,99746.63
2023-01-31T09:26:13.091Z,99743.53
2023-01-31T09:28:43.831Z,99753.47
2023-01-31T09:31:18.390Z,99746.28
2023-01-31T09:33:45.513Z,99756.84
2023-01-31T09:36:18.640Z,99765.69
2023-01-31T09:38:46.177Z,99753.34
2023-01-31T09:41:39.876Z,99748.06
2023-01-31T09:44:29.756Z,99757.91
2023-01-31T09:47:17.029Z,99760.56
2023-01-31T09:49:56.190Z,99769.44
2023-01-31T09:52:23.705Z,99770.31
2023-01-31T09:54:50.864Z,99768.72
2023-01-31T09:57:31.939Z,99756.66
2023-01-31T10:00:37.117Z,99773.03
2023-01-31T10:03:57.442Z,99766.31
2023-01-31T10:06:38.922Z,99769.47
2023-01-31T10:09:11.415Z,99767.97
2023-01-31T10:11:51.804Z,99774.09
2023-01-31T10:14:41.060Z,99766.03
2023-01-31T10:17:57.958Z,99761.44
2023-01-31T10:20:48.336Z,99768.25
2023-01-31T10:23:29.272Z,99758.28
2023-01-31T10:26:10.605Z,99768.19
2023-01-31T10:28:50.888Z,99762.91
2023-01-31T10:31:37.301Z,99764.66
2023-01-31T10:34:39.017Z,99770.13
2023-01-31T10:37:19.975Z,99769.47
2023-01-31T10:40:21.207Z,99768.59
2023-01-31T10:43:16.877Z,99765.63
2023-01-31T10:45:44.294Z,99767.91
2023-01-31T10:48:19.712Z,99758.97
2023-01-31T10:51:26.794Z,99770.94
2023-01-31T10:53:59.365Z,99757.88
2023-01-31T10:56:48.037Z,99755.19
2023-01-31T10:59:31.582Z,99754.06
2023-01-31T11:01:59.476Z,99756.69
2023-01-31T11:04:40.493Z,99757.50
2023-01-31T11:07:08.927Z,99745.22
2023-01-31T11:09:42.987Z,99753.28
2023-01-31T11:12:10.145Z,99757.78
2023-01-31T11:14:40.246Z,99761.16
2023-01-31T11:17:18.808Z,99763.78
2023-01-31T11:19:54.251Z,99769.44
2023-01-31T11:22:40.089Z,99765.81
2023-01-31T11:25:07.804Z,99762.09
2023-01-31T11:27:43.931Z,99771.25
2023-01-31T11:30:35.110Z,99770.63
2023-01-31T11:33:02.855Z,99780.91
2023-01-31T11:35:33.129Z,99780.00
2023-01-31T11:38:02.553Z,99779.56
2023-01-31T11:40:40.518Z,99785.56
2023-01-31T11:43:30.885Z,99771.81
2023-01-31T11:46:03.455Z,99772.59
2023-01-31T11:48:44.585Z,99778.25
2023-01-31T11:51:30.918Z,99762.78
2023-01-31T11:53:58.221Z,99769.31
2023-01-31T11:56:34.539Z,99766.16
2023-01-31T11:59:07.600Z,99763.88
2023-01-31T12:01:44.288Z,99749.38
2023-01-31T12:04:20.272Z,99753.44
2023-01-31T12:07:30.484Z,99735.53
2023-01-31T12:09:57.553Z,99742.44
2023-01-31T12:12:34.087Z,99742.34
2023-01-31T12:15:06.006Z,99742.59
2023-01-31T12:17:41.499Z,99741.69
2023-01-31T12:20:39.685Z,99729.00
2023-01-31T12:23:39.922Z,99730.59
2023-01-31T12:26:30.889Z,99738.88
2023-01-31T12:29:03.010Z,99750.13
2023-01-31T12:31:51.727Z,99738.88
2023-01-31T12:34:59.517Z,99725.63
2023-01-31T12:37:56.387Z,99750.63
2023-01-31T12:40:47.172Z,99734.34
2023-01-31T12:43:51.645Z,99742.38
2023-01-31T12:46:40.838Z,99724.00
2023-01-31T12:49:25.927Z,99730.25
2023-01-31T12:52:32.476Z,99728.25
2023-01-31T12:55:36.774Z,99731.25
2023-01-31T12:59:14.748Z,99732.78
2023-01-31T13:02:24.198Z,99725.47
2023-01-31T13:05:19.190Z,99733.53
2023-01-31T13:07:54.491Z,99723.06
2023-01-31T13:11:00.816Z,99712.69
2023-01-31T13:14:05.348Z,99719.44
2023-01-31T13:16:40.214Z,99734.31
2023-01-31T13:19:29.833Z,99727.63
2023-01-31T13:22:02.117Z,99732.38
2023-01-31T13:24:45.062Z,99720.41
2023-01-31T13:27:16.881Z,99711.97
2023-01-31T13:29:52.635Z,99711.78
2023-01-31T13:32:44.151Z,99713.66
2023-01-31T13:35:54.957Z,99711.56
2023-01-31T13:38:24.630Z,99719.59
2023-01-31T13:40:56.798Z,99713.56
2023-01-31T13:43:23.909Z,99707.94
2023-01-31T13:46:05.514Z,99709.47
2023-01-31T13:48:59.466Z,99718.13
2023-01-31T13:51:52.831Z,99709.34
2023-01-31T13:54:35.444Z,99714.31
2023-01-31T13:57:03.961Z,99723.66
2023-01-31T13:59:37.903Z,99719.84
2023-01-31T14:02:17.422Z,99720.66
2023-01-31T14:04:47.184Z,99720.56
2023-01-31T14:07:21.610Z,99717.47
2023-01-31T14:09:51.463Z,99711.69
2023-01-31T14:12:18.399Z,99717.72
2023-01-31T14:14:51.387Z,99704.78
2023-01-31T14:17:24.146Z,99709.16
2023-01-31T14:19:51.081Z,99723.22
2023-01-31T14:22:35.152Z,99704.16
2023-01-31T14:25:09.290Z,99706.72
2023-01-31T14:28:03.608Z,99709.22
2023-01-31T14:30:34.919Z,99712.16
2023-01-31T14:33:13.910Z,99706.38
2023-01-31T14:35:52.222Z,99712.63
2023-01-31T14:38:51.691Z,99713.16
2023-01-31T14:41:21.394Z,99694.81
2023-01-31T14:44:30.406Z,99704.09
2023-01-31T14:47:16.369Z,99696.84
2023-01-31T14:50:31.375Z,99701.19
2023-01-31T14:53:21.980Z,99705.59
2023-01-31T14:56:51.478Z,99688.53
2023-01-31T14:59:36.165Z,99702.00
2023-01-31T15:02:22.327Z,99701.41
2023-01-31T15:05:06.456Z,99699.56
2023-01-31T15:07:34.180Z,99691.03
2023-01-31T15:10:02.323Z,99690.13
2023-01-31T15:12:57.214Z,99694.81
2023-01-31T15:15:39.844Z,99697.88
2023-01-31T15:18:22.151Z,99689.66
2023-01-31T15:20:57.710Z,99678.31
2023-01-31T15:23:30.233Z,99690.59
2023-01-31T15:25:59.995Z,99686.44
2023-01-31T15:28:33.919Z,99678.66
2023-01-31T15:31:07.589Z,99693.47
2023-01-31T15:33:57.649Z,99694.03
2023-01-31T15:36:45.977Z,99691.03
2023-01-31T15:39:29.448Z,99690.09
2023-01-31T15:41:56.694Z,99694.53
2023-01-31T15:44:29.257Z,99687.28
2023-01-31T15:47:03.561Z,99684.75
2023-01-31T15:49:39.889Z,99682.06
2023-01-31T15:52:34.815Z,99674.75
2023-01-31T15:55:06.700Z,99676.75
2023-01-31T15:57:57.816Z,99681.44
2023-01-31T16:00:36.535Z,99674.22
2023-01-31T16:03:08.079Z,99681.25
2023-01-31T16:05:40.314Z,99679.72
2023-01-31T16:08:37.962Z,99688.91
2023-01-31T16:11:11.250Z,99689.63
2023-01-31T16:13:41.280Z,99690.13
2023-01-31T16:16:10.735Z,99690.72
2023-01-31T16:18:38.632Z,99687.34
2023-01-31T16:21:34.225Z,99685.34
2023-01-31T16:24:13.316Z,99676.41
2023-01-31T16:27:09.202Z,99677.91
2023-01-31T16:29:43.721Z,99679.63
2023-01-31T16:32:27.357Z,99674.41
2023-01-31T16:35:07.740Z,99674.25
2023-01-31T16:37:41.655Z,99682.09
2023-01-31T16:40:17.194Z,99676.59
2023-01-31T16:42:44.488Z,99672.94
2023-01-31T16:45:34.101Z,99666.13
2023-01-31T16:48:33.091Z,99666.94
2023-01-31T16:51:30.315Z,99661.38
2023-01-31T16:54:24.659Z,99653.72
2023-01-31T16:57:05.663Z,99651.81
2023-01-31T16:59:37.595Z,99657.69
2023-01-31T17:02:26.552Z,99645.53
2023-01-31T17:04:58.114Z,99642.16
2023-01-31T17:07:32.864Z,99638.53
2023-01-31T17:10:06.063Z,99635.97
2023-01-31T17:12:38.501Z,99633.50
2023-01-31T17:15:25.984Z,99633.84
2023-01-31T17:17:53.345Z,99626.75
2023-01-31T17:20:21.818Z,99613.03
2023-01-31T17:23:00.865Z,99618.44
2023-01-31T17:25:34.801Z,99613.91
2023-01-31T17:28:02.551Z,99615.75
2023-01-31T17:30:31.449Z,99613.97
2023-01-31T17:33:00.386Z,99608.56
2023-01-31T17:35:38.744Z,99601.72
2023-01-31T17:38:06.076Z,99593.38
2023-01-31T17:40:33.537Z,99590.16
2023-01-31T17:43:04.050Z,99592.63
2023-01-31T17:45:32.561Z,99588.00
2023-01-31T17:47:59.666Z,99578.09
2023-01-31T17:50:29.185Z,99570.59
2023-01-31T17:52:57.033Z,99568.94
2023-01-31T17:55:25.151Z,99562.47
2023-01-31T17:57:52.630Z,99564.47
2023-01-31T18:00:21.145Z,99555.19
2023-01-31T18:02:48.329Z,99556.44
2023-01-31T18:05:24.575Z,99552.09
2023-01-31T18:07:59.152Z,99549.81
2023-01-31T18:10:26.329Z,99538.19
2023-01-31T18:12:53.418Z,99535.72
2023-01-31T18:15:20.728Z,99535.78
2023-01-31T18:17:47.914Z,99532.91
2023-01-31T18:20:15.042Z,99518.88
2023-01-31T18:22:42.064Z,99518.19
2023-01-31T18:25:09.148Z,99516.41
2023-01-31T18:27:36.232Z,99510.00
2023-01-31T18:30:05.713Z,99503.81
2023-01-31T18:32:35.984Z,99503.06
2023-01-31T18:35:03.131Z,99495.28
2023-01-31T18:37:31.155Z,99478.16
2023-01-31T18:39:58.190Z,99478.66
2023-01-31T18:42:25.331Z,99484.69
2023-01-31T18:44:52.463Z,99480.59
2023-01-31T18:47:19.458Z,99477.66
2023-01-31T18:49:46.495Z,99478.31
2023-01-31T18:52:13.609Z,99466.28
2023-01-31T18:54:41.420Z,99462.19
2023-01-31T18:57:08.660Z,99468.50
2023-01-31T18:59:35.835Z,99453.06
2023-01-31T19:02:03.058Z,99453.13
2023-01-31T19:04:30.218Z,99439.41
2023-01-31T19:06:57.479Z,99442.69
2023-01-31T19:09:24.702Z,99438.47
2023-01-31T19:11:51.754Z,99440.28
2023-01-31T19:14:19.197Z,99440.22
2023-01-31T19:16:46.369Z,99429.63
2023-01-31T19:19:13.520Z,99428.47
2023-01-31T19:21:41.165Z,99421.31
2023-01-31T19:24:12.565Z,99419.88
2023-01-31T19:26:39.893Z,99422.34
2023-01-31T19:29:09.688Z,99401.69
2023-01-31T19:31:37.075Z,99390.03
2023-01-31T19:34:06.966Z,99395.34
2023-01-31T19:36:39.936Z,99390.09
2023-01-31T19:39:11.354Z,99376.13
2023-01-31T19:41:38.872Z,99378.19
2023-01-31T19:44:06.126Z,99365.22
2023-01-31T19:46:35.856Z,99351.13
2023-01-31T19:49:03.585Z,99350.16
2023-01-31T19:51:31.208Z,99346.94
2023-01-31T19:54:03.902Z,99346.69
2023-01-31T19:56:32.540Z,99336.50
2023-01-31T19:59:00.407Z,99318.84
2023-01-31T20:01:27.576Z,99318.56
2023-01-31T20:03:55.425Z,99308.16
2023-01-31T20:06:26.034Z,99305.41
2023-01-31T20:08:59.170Z,99306.13
2023-01-31T20:11:28.971Z,99290.31
2023-01-31T20:14:00.474Z,99289.63
2023-01-31T20:16:27.617Z,99288.72
2023-01-31T20:18:56.253Z,99286.50
2023-01-31T20:21:23.785Z,99286.81
2023-01-31T20:23:50.901Z,99278.47
2023-01-31T20:26:19.554Z,99285.28
2023-01-31T20:28:46.732Z,99277.97
2023-01-31T20:31:15.543Z,99262.94
2023-01-31T20:33:43.129Z,99262.13
2023-01-31T20:36:11.224Z,99260.13
2023-01-31T20:38:39.069Z,99252.34
2023-01-31T20:41:08.516Z,99253.75
2023-01-31T20:43:36.581Z,99241.59
2023-01-31T20:46:06.415Z,99243.03
2023-01-31T20:48:33.577Z,99239.53
2023-01-31T20:51:01.042Z,99236.63
2023-01-31T20:53:31.882Z,99234.69
2023-01-31T20:56:09.566Z,99231.06
2023-01-31T20:58:39.905Z,99219.34
2023-01-31T21:01:08.369Z,99213.56
2023-01-31T21:03:36.650Z,99214.50
2023-01-31T21:06:05.473Z,99204.91
2023-01-31T21:08:35.404Z,99204.13
2023-01-31T21:11:08.410Z,99196.03
2023-01-31T21:13:36.128Z,99191.66
2023-01-31T21:16:06.860Z,99178.41
2023-01-31T21:18:37.489Z,99180.94
2023-01-31T21:21:11.375Z,99171.13
2023-01-31T21:23:40.682Z,99165.38
2023-01-31T21:26:10.905Z,99161.88
2023-01-31T21:28:40.095Z,99157.50
2023-01-31T21:31:12.548Z,99150.53
2023-01-31T21:33:39.758Z,99146.28
2023-01-31T21:36:12.846Z,99128.38
2023-01-31T21:38:41.117Z,99133.97
2023-01-31T21:41:33.867Z,99141.81
2023-01-31T21:44:00.981Z,99128.72
2023-01-31T21:46:28.506Z,99127.94
2023-01-31T21:48:55.659Z,99117.75
2023-01-31T21:51:25.330Z,99112.78
2023-01-31T21:53:53.769Z,99099.06
2023-01-31T21:56:25.113Z,99100.63
2023-01-31T21:58:56.978Z,99106.53
2023-01-31T22:01:33.794Z,99102.47
2023-01-31T22:04:01.514Z,99099.28
2023-01-31T22:06:42.709Z,99093.06
2023-01-31T22:09:13.643Z,99089.47
2023-01-31T22:11:40.830Z,99089.44
2023-01-31T22:14:12.460Z,99084.22
2023-01-31T22:16:40.600Z,99080.78
2023-01-31T22:19:08.285Z,99075.59
2023-01-31T22:21:37.400Z,99058.16
2023-01-31T22:24:07.894Z,99062.31
2023-01-31T22:26:42.080Z,99060.09
2023-01-31T22:29:12.868Z,99069.78
2023-01-31T22:31:40.131Z,99040.63
2023-01-31T22:34:15.531Z,99056.59
2023-01-31T22:36:42.672Z,99040.47
2023-01-31T22:39:13.337Z,99051.13
2023-01-31T22:41:40.469Z,99043.63
2023-01-31T22:44:07.529Z,99039.28
2023-01-31T22:46:34.680Z,99040.66
2023-01-31T22:49:01.862Z,99032.44
2023-01-31T22:51:29.829Z,99030.06
2023-01-31T22:53:58.432Z,99016.16
2023-01-31T22:56:32.179Z,99014.22
2023-01-31T22:59:02.693Z,99008.50
2023-01-31T23:01:35.031Z,99012.63
2023-01-31T23:04:05.336Z,99013.66
2023-01-31T23:06:32.817Z,99005.84
2023-01-31T23:08:59.941Z,99000.84
2023-01-31T23:11:27.488Z,98995.44
2023-01-31T23:13:54.797Z,98980.56
2023-01-31T23:16:45.237Z,98978.47
2023-01-31T23:19:12.649Z,98977.66
2023-01-31T23:21:44.325Z,98980.19
2023-01-31T23:24:14.532Z,98974.69
2023-01-31T23:26:42.071Z,98971.22
2023-01-31T23:29:09.190Z,98970.53
2023-01-31T23:31:36.802Z,98963.09
2023-01-31T23:34:06.085Z,98974.31
2023-01-31T23:36:33.205Z,98962.88
2023-01-31T23:39:00.479Z,98950.59
2023-01-31T23:41:27.546Z,98953.78
2023-01-31T23:43:54.637Z,98957.00
2023-01-31T23:46:21.731Z,98949.25
2023-01-31T23:48:48.777Z,98944.53
2023-01-31T23:51:15.804Z,98940.94
2023-01-31T23:53:42.868Z,98935.28
2023-01-31T23:56:09.886Z,98945.56
2023-01-31T23:58:36.913Z,98934.25
